Burns Municipal Airport
KBNO : now visible

Airfield :











YOU CAN JOIN US ON...

 
LOGIN :

Register | Disclaimer

   EN    FR    IT 

 









Legend :    VFR   Marginal VFR   IFR   Intensive IFR   Very Intensive IFR
Visi :
Ceiling :
>= 8 km
>= 3000ft
5 to 8 km
1000 to 3000 ft
1500m to 5 km
500 to 1000 ft
800 to 1500m
200 to 500 ft
< 800m
< 200 ft
Symbols :   Thunderstorms  Fog  Heavy snow  Heavy precipitations  Wind > 20 kt






- Airport Elevation : 4148 ft


KBNO - Burns Municipal

CURRENT METAR :
  • 172053Z AUTO 09005KT 10SM BKN080 M01/M07 A3017 RMK AO2 SLP251 T10111072 50002

EXPIRED METARs :
  • 171953Z AUTO 07004KT 10SM BKN080 M02/M07 A3017 RMK AO2 SLP255 T10221072
  • 171853Z AUTO 10004KT 10SM OVC090 M04/M09 A3019 RMK AO2 SLP257 T10441089

TAF KBNO
Valid from the 17 at 19:00 until the 18 at 18:00 UTC


171926Z 1719/1818 20006KT P6SM SCT060 OVC090
FM180000 10005KT P6SM VCSH BKN030 OVC050
TEMPO 1808/1811 2SM -SHSN BKN012 OVC020
FM181200 VRB05KT P6SM BKN050



MET'MAP, your aeronautical weather chart ! - Copyright ORBIFLY December 2007 - Disclaimer

ORBIFLY MET'MAP TEAM :

Programming & Development : Alexandra Zaïnal
Concept & original design : Baudouin d'Aumeries
Assistance for programming : Marc-Olivier Méhu
Technical & hardware support : Manuel Goepfert

Contact : metmap@orbifly.com




SOURCES & CREDITS :

   NOAA       Earth
Advisory